sensor_id;sensor_type;location;lat;lon;timestamp;temperature;humidity
34768;DHT22;21755;43.608;1.236;2023-08-17T00:01:51;25.10;4.70
34768;DHT22;21755;43.608;1.236;2023-08-17T00:04:17;25.10;4.20
34768;DHT22;21755;43.608;1.236;2023-08-17T00:06:43;24.80;16.40
34768;DHT22;21755;43.608;1.236;2023-08-17T00:09:09;24.90;14.30
34768;DHT22;21755;43.608;1.236;2023-08-17T00:11:38;25.10;4.90
34768;DHT22;21755;43.608;1.236;2023-08-17T00:14:05;25.10;5.50
34768;DHT22;21755;43.608;1.236;2023-08-17T00:16:31;25.20;4.10
34768;DHT22;21755;43.608;1.236;2023-08-17T00:18:56;25.10;8.80
34768;DHT22;21755;43.608;1.236;2023-08-17T00:21:23;25.10;7.90
34768;DHT22;21755;43.608;1.236;2023-08-17T00:23:48;25.10;10.00
34768;DHT22;21755;43.608;1.236;2023-08-17T00:26:15;25.10;3.90
34768;DHT22;21755;43.608;1.236;2023-08-17T00:28:41;25.10;10.90
34768;DHT22;21755;43.608;1.236;2023-08-17T00:31:07;25.10;8.90
34768;DHT22;21755;43.608;1.236;2023-08-17T00:33:33;25.10;10.30
34768;DHT22;21755;43.608;1.236;2023-08-17T00:35:58;25.10;9.90
34768;DHT22;21755;43.608;1.236;2023-08-17T00:38:24;25.00;15.50
34768;DHT22;21755;43.608;1.236;2023-08-17T00:40:50;25.20;1.00
34768;DHT22;21755;43.608;1.236;2023-08-17T00:43:16;24.90;16.10
34768;DHT22;21755;43.608;1.236;2023-08-17T00:45:44;25.00;11.60
34768;DHT22;21755;43.608;1.236;2023-08-17T00:48:11;25.10;9.80
34768;DHT22;21755;43.608;1.236;2023-08-17T00:50:38;25.10;7.60
34768;DHT22;21755;43.608;1.236;2023-08-17T00:53:05;25.00;6.60
34768;DHT22;21755;43.608;1.236;2023-08-17T00:55:33;24.90;12.90
34768;DHT22;21755;43.608;1.236;2023-08-17T00:57:59;25.00;12.30
34768;DHT22;21755;43.608;1.236;2023-08-17T01:00:25;25.20;2.60
34768;DHT22;21755;43.608;1.236;2023-08-17T01:02:54;25.10;1.00
34768;DHT22;21755;43.608;1.236;2023-08-17T01:05:21;25.10;1.10
34768;DHT22;21755;43.608;1.236;2023-08-17T01:07:47;25.10;1.00
34768;DHT22;21755;43.608;1.236;2023-08-17T01:10:14;25.00;5.20
34768;DHT22;21755;43.608;1.236;2023-08-17T01:15:29;25.00;1.00
34768;DHT22;21755;43.608;1.236;2023-08-17T01:18:11;25.00;1.00
34768;DHT22;21755;43.608;1.236;2023-08-17T01:20:42;24.70;14.10
34768;DHT22;21755;43.608;1.236;2023-08-17T01:23:09;24.70;20.00
34768;DHT22;21755;43.608;1.236;2023-08-17T01:25:35;24.60;19.90
34768;DHT22;21755;43.608;1.236;2023-08-17T01:28:05;24.60;25.20
34768;DHT22;21755;43.608;1.236;2023-08-17T01:30:44;24.70;21.30
34768;DHT22;21755;43.608;1.236;2023-08-17T01:33:18;24.60;15.40
34768;DHT22;21755;43.608;1.236;2023-08-17T01:35:52;24.70;14.50
34768;DHT22;21755;43.608;1.236;2023-08-17T01:38:21;24.90;2.90
34768;DHT22;21755;43.608;1.236;2023-08-17T01:40:50;24.90;4.90
34768;DHT22;21755;43.608;1.236;2023-08-17T01:43:19;24.90;1.90
34768;DHT22;21755;43.608;1.236;2023-08-17T01:45:45;25.00;1.00
34768;DHT22;21755;43.608;1.236;2023-08-17T01:48:11;25.10;1.00
34768;DHT22;21755;43.608;1.236;2023-08-17T01:50:37;25.10;1.00
34768;DHT22;21755;43.608;1.236;2023-08-17T01:53:03;25.00;1.00
34768;DHT22;21755;43.608;1.236;2023-08-17T01:55:29;24.90;2.80
34768;DHT22;21755;43.608;1.236;2023-08-17T01:57:55;25.00;2.40
34768;DHT22;21755;43.608;1.236;2023-08-17T02:00:21;24.90;1.00
34768;DHT22;21755;43.608;1.236;2023-08-17T02:02:47;24.70;17.10
34768;DHT22;21755;43.608;1.236;2023-08-17T02:05:13;24.90;2.80
34768;DHT22;21755;43.608;1.236;2023-08-17T02:07:38;25.10;1.00
34768;DHT22;21755;43.608;1.236;2023-08-17T02:10:05;24.80;1.00
34768;DHT22;21755;43.608;1.236;2023-08-17T02:12:30;24.70;8.50
34768;DHT22;21755;43.608;1.236;2023-08-17T02:14:56;24.90;3.30
34768;DHT22;21755;43.608;1.236;2023-08-17T02:17:22;24.90;1.00
34768;DHT22;21755;43.608;1.236;2023-08-17T02:19:48;24.70;1.00
34768;DHT22;21755;43.608;1.236;2023-08-17T02:22:15;24.70;1.00
34768;DHT22;21755;43.608;1.236;2023-08-17T02:24:41;24.60;15.00
34768;DHT22;21755;43.608;1.236;2023-08-17T02:27:08;24.80;2.20
34768;DHT22;21755;43.608;1.236;2023-08-17T02:29:34;24.90;1.00
34768;DHT22;21755;43.608;1.236;2023-08-17T02:32:00;24.90;1.00
34768;DHT22;21755;43.608;1.236;2023-08-17T02:34:26;24.70;2.20
34768;DHT22;21755;43.608;1.236;2023-08-17T02:36:52;25.00;1.00
34768;DHT22;21755;43.608;1.236;2023-08-17T02:39:18;25.10;1.00
34768;DHT22;21755;43.608;1.236;2023-08-17T02:41:44;24.90;1.00
34768;DHT22;21755;43.608;1.236;2023-08-17T02:44:10;25.00;1.00
34768;DHT22;21755;43.608;1.236;2023-08-17T02:46:36;24.90;1.00
34768;DHT22;21755;43.608;1.236;2023-08-17T02:49:02;25.00;1.00
34768;DHT22;21755;43.608;1.236;2023-08-17T02:51:28;24.90;1.00
34768;DHT22;21755;43.608;1.236;2023-08-17T02:53:54;24.90;1.00
34768;DHT22;21755;43.608;1.236;2023-08-17T02:56:19;24.60;1.00
34768;DHT22;21755;43.608;1.236;2023-08-17T02:58:45;24.70;1.40
34768;DHT22;21755;43.608;1.236;2023-08-17T03:01:11;24.50;5.60
34768;DHT22;21755;43.608;1.236;2023-08-17T03:03:37;24.60;1.00
34768;DHT22;21755;43.608;1.236;2023-08-17T03:06:03;24.70;1.00
34768;DHT22;21755;43.608;1.236;2023-08-17T03:08:29;24.60;1.00
34768;DHT22;21755;43.608;1.236;2023-08-17T03:10:55;24.80;1.00
34768;DHT22;21755;43.608;1.236;2023-08-17T03:13:20;24.70;1.00
34768;DHT22;21755;43.608;1.236;2023-08-17T03:15:46;24.60;1.00
34768;DHT22;21755;43.608;1.236;2023-08-17T03:18:12;24.70;1.00
34768;DHT22;21755;43.608;1.236;2023-08-17T03:20:38;24.70;1.00
34768;DHT22;21755;43.608;1.236;2023-08-17T03:23:04;24.50;1.00
34768;DHT22;21755;43.608;1.236;2023-08-17T03:25:34;24.40;1.40
34768;DHT22;21755;43.608;1.236;2023-08-17T03:28:00;24.50;1.00
34768;DHT22;21755;43.608;1.236;2023-08-17T03:30:26;24.70;1.00
34768;DHT22;21755;43.608;1.236;2023-08-17T03:32:52;24.80;1.00
34768;DHT22;21755;43.608;1.236;2023-08-17T03:35:18;24.80;1.00
34768;DHT22;21755;43.608;1.236;2023-08-17T03:37:44;24.80;1.00
34768;DHT22;21755;43.608;1.236;2023-08-17T03:40:11;24.50;1.00
34768;DHT22;21755;43.608;1.236;2023-08-17T03:42:36;24.60;1.00
34768;DHT22;21755;43.608;1.236;2023-08-17T03:45:03;24.80;1.00
34768;DHT22;21755;43.608;1.236;2023-08-17T03:47:29;24.50;1.00
34768;DHT22;21755;43.608;1.236;2023-08-17T03:49:55;24.30;1.00
34768;DHT22;21755;43.608;1.236;2023-08-17T03:52:21;24.30;1.00
34768;DHT22;21755;43.608;1.236;2023-08-17T03:54:47;24.40;1.00
34768;DHT22;21755;43.608;1.236;2023-08-17T03:57:12;24.50;1.00
34768;DHT22;21755;43.608;1.236;2023-08-17T03:59:38;24.40;1.00
34768;DHT22;21755;43.608;1.236;2023-08-17T04:02:04;24.20;1.00
34768;DHT22;21755;43.608;1.236;2023-08-17T04:04:30;24.30;1.00
34768;DHT22;21755;43.608;1.236;2023-08-17T04:06:56;24.20;1.00
34768;DHT22;21755;43.608;1.236;2023-08-17T04:09:22;24.20;1.00
34768;DHT22;21755;43.608;1.236;2023-08-17T04:11:48;24.30;1.00
34768;DHT22;21755;43.608;1.236;2023-08-17T04:14:13;24.20;1.00
34768;DHT22;21755;43.608;1.236;2023-08-17T04:16:39;24.20;1.00
34768;DHT22;21755;43.608;1.236;2023-08-17T04:19:05;24.00;1.00
34768;DHT22;21755;43.608;1.236;2023-08-17T04:21:31;23.90;1.00
34768;DHT22;21755;43.608;1.236;2023-08-17T04:23:57;23.80;1.00
34768;DHT22;21755;43.608;1.236;2023-08-17T04:26:23;24.00;1.00
34768;DHT22;21755;43.608;1.236;2023-08-17T04:28:49;24.00;1.00
34768;DHT22;21755;43.608;1.236;2023-08-17T04:31:16;24.00;1.00
34768;DHT22;21755;43.608;1.236;2023-08-17T04:33:42;24.10;1.00
34768;DHT22;21755;43.608;1.236;2023-08-17T04:36:08;23.90;1.00
34768;DHT22;21755;43.608;1.236;2023-08-17T04:38:34;24.20;1.00
34768;DHT22;21755;43.608;1.236;2023-08-17T04:41:00;24.20;1.00
34768;DHT22;21755;43.608;1.236;2023-08-17T04:43:26;24.50;1.00
34768;DHT22;21755;43.608;1.236;2023-08-17T04:45:52;24.40;1.00
34768;DHT22;21755;43.608;1.236;2023-08-17T04:48:17;24.10;1.00
34768;DHT22;21755;43.608;1.236;2023-08-17T04:50:44;24.10;1.00
34768;DHT22;21755;43.608;1.236;2023-08-17T04:53:10;24.30;1.00
34768;DHT22;21755;43.608;1.236;2023-08-17T04:55:36;24.30;1.00
34768;DHT22;21755;43.608;1.236;2023-08-17T04:58:01;24.20;1.00
34768;DHT22;21755;43.608;1.236;2023-08-17T05:00:27;23.90;1.00
34768;DHT22;21755;43.608;1.236;2023-08-17T05:02:55;24.10;1.00
34768;DHT22;21755;43.608;1.236;2023-08-17T05:05:21;24.30;1.00
34768;DHT22;21755;43.608;1.236;2023-08-17T05:07:47;24.30;1.00
34768;DHT22;21755;43.608;1.236;2023-08-17T05:10:13;24.40;1.00
34768;DHT22;21755;43.608;1.236;2023-08-17T05:12:39;24.40;1.00
34768;DHT22;21755;43.608;1.236;2023-08-17T05:15:05;24.40;1.00
34768;DHT22;21755;43.608;1.236;2023-08-17T05:17:31;24.30;1.00
34768;DHT22;21755;43.608;1.236;2023-08-17T05:19:56;24.20;1.00
34768;DHT22;21755;43.608;1.236;2023-08-17T05:22:22;24.00;1.00
34768;DHT22;21755;43.608;1.236;2023-08-17T05:24:48;23.80;1.00
34768;DHT22;21755;43.608;1.236;2023-08-17T05:27:14;23.70;1.00
34768;DHT22;21755;43.608;1.236;2023-08-17T05:29:40;23.70;1.00
34768;DHT22;21755;43.608;1.236;2023-08-17T05:32:05;23.80;1.00
34768;DHT22;21755;43.608;1.236;2023-08-17T05:34:31;23.80;1.00
34768;DHT22;21755;43.608;1.236;2023-08-17T05:36:57;23.70;1.00
34768;DHT22;21755;43.608;1.236;2023-08-17T05:39:23;23.80;1.00
34768;DHT22;21755;43.608;1.236;2023-08-17T05:41:49;23.50;1.00
34768;DHT22;21755;43.608;1.236;2023-08-17T05:44:15;23.50;1.00
34768;DHT22;21755;43.608;1.236;2023-08-17T05:46:41;23.40;1.00
34768;DHT22;21755;43.608;1.236;2023-08-17T05:49:06;23.10;1.00
34768;DHT22;21755;43.608;1.236;2023-08-17T05:51:32;23.00;1.60
34768;DHT22;21755;43.608;1.236;2023-08-17T05:53:58;23.20;5.90
34768;DHT22;21755;43.608;1.236;2023-08-17T05:56:24;23.60;1.00
34768;DHT22;21755;43.608;1.236;2023-08-17T05:58:50;23.30;1.00
34768;DHT22;21755;43.608;1.236;2023-08-17T06:01:16;23.00;1.00
34768;DHT22;21755;43.608;1.236;2023-08-17T06:03:42;22.70;38.30
34768;DHT22;21755;43.608;1.236;2023-08-17T06:06:08;22.60;38.70
34768;DHT22;21755;43.608;1.236;2023-08-17T06:08:34;22.70;33.90
34768;DHT22;21755;43.608;1.236;2023-08-17T06:11:00;22.60;33.60
34768;DHT22;21755;43.608;1.236;2023-08-17T06:13:26;22.80;35.50
34768;DHT22;21755;43.608;1.236;2023-08-17T06:15:52;22.90;28.20
34768;DHT22;21755;43.608;1.236;2023-08-17T06:18:18;23.00;31.60
34768;DHT22;21755;43.608;1.236;2023-08-17T06:20:46;23.10;28.00
34768;DHT22;21755;43.608;1.236;2023-08-17T06:23:13;22.70;28.20
34768;DHT22;21755;43.608;1.236;2023-08-17T06:25:39;22.60;51.40
34768;DHT22;21755;43.608;1.236;2023-08-17T06:28:06;22.30;54.90
34768;DHT22;21755;43.608;1.236;2023-08-17T06:30:32;22.20;70.30
34768;DHT22;21755;43.608;1.236;2023-08-17T06:32:57;22.30;84.30
34768;DHT22;21755;43.608;1.236;2023-08-17T06:35:24;22.30;85.30
34768;DHT22;21755;43.608;1.236;2023-08-17T06:37:50;22.30;66.40
34768;DHT22;21755;43.608;1.236;2023-08-17T06:40:17;22.70;65.50
34768;DHT22;21755;43.608;1.236;2023-08-17T06:42:42;22.50;62.50
34768;DHT22;21755;43.608;1.236;2023-08-17T06:45:08;22.70;68.40
34768;DHT22;21755;43.608;1.236;2023-08-17T06:47:34;22.60;57.60
34768;DHT22;21755;43.608;1.236;2023-08-17T06:50:00;22.50;57.90
34768;DHT22;21755;43.608;1.236;2023-08-17T06:52:26;22.30;69.70
34768;DHT22;21755;43.608;1.236;2023-08-17T06:54:52;22.30;71.80
34768;DHT22;21755;43.608;1.236;2023-08-17T06:57:17;22.20;81.10
34768;DHT22;21755;43.608;1.236;2023-08-17T06:59:44;22.20;74.40
34768;DHT22;21755;43.608;1.236;2023-08-17T07:02:11;22.10;79.00
34768;DHT22;21755;43.608;1.236;2023-08-17T07:04:37;22.20;91.50
34768;DHT22;21755;43.608;1.236;2023-08-17T07:07:03;22.20;85.00
34768;DHT22;21755;43.608;1.236;2023-08-17T07:09:29;22.20;81.50
34768;DHT22;21755;43.608;1.236;2023-08-17T07:11:54;22.20;85.50
34768;DHT22;21755;43.608;1.236;2023-08-17T07:14:20;22.30;83.20
34768;DHT22;21755;43.608;1.236;2023-08-17T07:16:46;22.30;85.10
34768;DHT22;21755;43.608;1.236;2023-08-17T07:19:12;22.40;89.00
34768;DHT22;21755;43.608;1.236;2023-08-17T07:21:39;22.50;84.20
34768;DHT22;21755;43.608;1.236;2023-08-17T07:24:14;22.70;77.40
34768;DHT22;21755;43.608;1.236;2023-08-17T07:26:41;22.80;72.80
34768;DHT22;21755;43.608;1.236;2023-08-17T07:29:07;23.00;71.20
34768;DHT22;21755;43.608;1.236;2023-08-17T07:31:33;23.00;63.00
34768;DHT22;21755;43.608;1.236;2023-08-17T07:34:00;23.10;66.50
34768;DHT22;21755;43.608;1.236;2023-08-17T07:36:25;23.10;70.70
34768;DHT22;21755;43.608;1.236;2023-08-17T07:38:51;23.10;64.80
34768;DHT22;21755;43.608;1.236;2023-08-17T07:41:17;23.20;60.50
34768;DHT22;21755;43.608;1.236;2023-08-17T07:43:43;23.30;60.20
34768;DHT22;21755;43.608;1.236;2023-08-17T07:46:09;23.50;46.40
34768;DHT22;21755;43.608;1.236;2023-08-17T07:48:34;23.40;34.40
34768;DHT22;21755;43.608;1.236;2023-08-17T07:51:00;23.50;58.20
34768;DHT22;21755;43.608;1.236;2023-08-17T07:53:26;23.70;52.90
34768;DHT22;21755;43.608;1.236;2023-08-17T07:55:52;23.70;40.30
34768;DHT22;21755;43.608;1.236;2023-08-17T07:58:18;23.80;39.40
34768;DHT22;21755;43.608;1.236;2023-08-17T08:00:44;23.90;35.30
34768;DHT22;21755;43.608;1.236;2023-08-17T08:03:09;23.90;23.70
34768;DHT22;21755;43.608;1.236;2023-08-17T08:05:35;23.70;14.40
34768;DHT22;21755;43.608;1.236;2023-08-17T08:08:01;23.70;32.50
34768;DHT22;21755;43.608;1.236;2023-08-17T08:10:27;23.90;24.10
34768;DHT22;21755;43.608;1.236;2023-08-17T08:12:54;23.90;20.50
34768;DHT22;21755;43.608;1.236;2023-08-17T08:15:20;24.10;23.20
34768;DHT22;21755;43.608;1.236;2023-08-17T08:17:46;24.20;20.70
34768;DHT22;21755;43.608;1.236;2023-08-17T08:20:12;24.50;11.70
34768;DHT22;21755;43.608;1.236;2023-08-17T08:22:37;24.50;2.90
34768;DHT22;21755;43.608;1.236;2023-08-17T08:25:03;24.50;6.20
34768;DHT22;21755;43.608;1.236;2023-08-17T08:27:29;24.70;1.00
34768;DHT22;21755;43.608;1.236;2023-08-17T08:29:55;24.70;4.10
34768;DHT22;21755;43.608;1.236;2023-08-17T08:32:21;25.00;1.00
34768;DHT22;21755;43.608;1.236;2023-08-17T08:34:47;25.10;1.00
34768;DHT22;21755;43.608;1.236;2023-08-17T08:37:13;25.20;1.00
34768;DHT22;21755;43.608;1.236;2023-08-17T08:39:53;25.40;1.00
34768;DHT22;21755;43.608;1.236;2023-08-17T08:42:22;25.50;1.00
34768;DHT22;21755;43.608;1.236;2023-08-17T08:44:49;25.70;1.00
34768;DHT22;21755;43.608;1.236;2023-08-17T08:47:19;25.80;1.00
34768;DHT22;21755;43.608;1.236;2023-08-17T08:50:02;26.00;1.00
34768;DHT22;21755;43.608;1.236;2023-08-17T08:52:42;26.10;1.00
34768;DHT22;21755;43.608;1.236;2023-08-17T08:55:23;26.20;1.00
34768;DHT22;21755;43.608;1.236;2023-08-17T08:57:49;26.40;1.00
34768;DHT22;21755;43.608;1.236;2023-08-17T09:00:16;26.40;99.90
34768;DHT22;21755;43.608;1.236;2023-08-17T09:02:42;26.50;99.90
34768;DHT22;21755;43.608;1.236;2023-08-17T09:05:10;26.60;99.90
34768;DHT22;21755;43.608;1.236;2023-08-17T09:07:37;26.80;99.90
34768;DHT22;21755;43.608;1.236;2023-08-17T09:10:04;26.90;99.90
34768;DHT22;21755;43.608;1.236;2023-08-17T09:12:30;27.00;41.90
34768;DHT22;21755;43.608;1.236;2023-08-17T09:14:56;27.10;99.90
34768;DHT22;21755;43.608;1.236;2023-08-17T09:17:24;27.30;2.50
34768;DHT22;21755;43.608;1.236;2023-08-17T09:19:50;27.50;1.00
34768;DHT22;21755;43.608;1.236;2023-08-17T09:22:23;27.50;1.00
34768;DHT22;21755;43.608;1.236;2023-08-17T09:24:50;27.60;1.00
34768;DHT22;21755;43.608;1.236;2023-08-17T09:27:16;27.70;99.90
34768;DHT22;21755;43.608;1.236;2023-08-17T09:29:45;27.70;99.90
34768;DHT22;21755;43.608;1.236;2023-08-17T09:32:14;27.80;1.00
34768;DHT22;21755;43.608;1.236;2023-08-17T09:34:44;28.00;99.90
34768;DHT22;21755;43.608;1.236;2023-08-17T09:37:12;28.00;1.00
34768;DHT22;21755;43.608;1.236;2023-08-17T09:39:38;28.00;99.90
34768;DHT22;21755;43.608;1.236;2023-08-17T09:42:04;28.20;99.90
34768;DHT22;21755;43.608;1.236;2023-08-17T09:44:33;28.20;99.90
34768;DHT22;21755;43.608;1.236;2023-08-17T09:47:00;28.30;1.00
34768;DHT22;21755;43.608;1.236;2023-08-17T09:49:26;28.50;99.90
34768;DHT22;21755;43.608;1.236;2023-08-17T09:51:59;28.60;99.90
34768;DHT22;21755;43.608;1.236;2023-08-17T09:54:26;28.60;99.90
34768;DHT22;21755;43.608;1.236;2023-08-17T09:56:53;28.70;1.00
34768;DHT22;21755;43.608;1.236;2023-08-17T09:59:20;28.80;5.90
34768;DHT22;21755;43.608;1.236;2023-08-17T10:01:49;28.80;99.90
34768;DHT22;21755;43.608;1.236;2023-08-17T10:04:21;28.90;57.50
34768;DHT22;21755;43.608;1.236;2023-08-17T10:06:58;29.00;41.90
34768;DHT22;21755;43.608;1.236;2023-08-17T10:09:31;29.30;1.00
34768;DHT22;21755;43.608;1.236;2023-08-17T10:12:04;29.30;99.90
34768;DHT22;21755;43.608;1.236;2023-08-17T10:14:36;29.30;99.90
34768;DHT22;21755;43.608;1.236;2023-08-17T10:17:09;29.40;99.90
34768;DHT22;21755;43.608;1.236;2023-08-17T10:19:51;29.40;99.90
34768;DHT22;21755;43.608;1.236;2023-08-17T10:22:31;29.50;99.90
34768;DHT22;21755;43.608;1.236;2023-08-17T10:25:00;29.50;75.60
34768;DHT22;21755;43.608;1.236;2023-08-17T10:27:27;29.50;91.10
34768;DHT22;21755;43.608;1.236;2023-08-17T10:29:53;29.60;89.10
34768;DHT22;21755;43.608;1.236;2023-08-17T10:32:22;29.70;52.70
34768;DHT22;21755;43.608;1.236;2023-08-17T10:34:50;29.80;20.90
34768;DHT22;21755;43.608;1.236;2023-08-17T10:37:18;30.00;1.00
34768;DHT22;21755;43.608;1.236;2023-08-17T10:39:48;30.00;1.00
34768;DHT22;21755;43.608;1.236;2023-08-17T10:42:14;30.10;1.00
34768;DHT22;21755;43.608;1.236;2023-08-17T10:44:45;29.90;1.00
34768;DHT22;21755;43.608;1.236;2023-08-17T10:47:24;29.90;1.00
34768;DHT22;21755;43.608;1.236;2023-08-17T10:49:51;30.10;1.00
34768;DHT22;21755;43.608;1.236;2023-08-17T10:52:33;30.20;1.00
34768;DHT22;21755;43.608;1.236;2023-08-17T10:55:01;30.30;1.00
34768;DHT22;21755;43.608;1.236;2023-08-17T10:57:37;30.50;1.00
34768;DHT22;21755;43.608;1.236;2023-08-17T11:00:19;30.70;1.00
34768;DHT22;21755;43.608;1.236;2023-08-17T11:03:20;30.80;1.00
34768;DHT22;21755;43.608;1.236;2023-08-17T11:05:47;30.90;99.90
34768;DHT22;21755;43.608;1.236;2023-08-17T11:08:37;30.60;99.90
34768;DHT22;21755;43.608;1.236;2023-08-17T11:11:10;30.70;99.90
34768;DHT22;21755;43.608;1.236;2023-08-17T11:13:37;30.80;99.90
34768;DHT22;21755;43.608;1.236;2023-08-17T11:16:04;30.80;99.90
34768;DHT22;21755;43.608;1.236;2023-08-17T11:18:34;30.80;99.90
34768;DHT22;21755;43.608;1.236;2023-08-17T11:21:04;30.80;99.90
34768;DHT22;21755;43.608;1.236;2023-08-17T11:23:31;30.90;99.90
34768;DHT22;21755;43.608;1.236;2023-08-17T11:25:58;30.90;99.90
34768;DHT22;21755;43.608;1.236;2023-08-17T11:28:24;31.00;99.90
34768;DHT22;21755;43.608;1.236;2023-08-17T11:31:00;31.10;99.90
34768;DHT22;21755;43.608;1.236;2023-08-17T11:33:27;31.10;99.90
34768;DHT22;21755;43.608;1.236;2023-08-17T11:36:00;31.20;99.90
34768;DHT22;21755;43.608;1.236;2023-08-17T11:38:30;31.20;99.90
34768;DHT22;21755;43.608;1.236;2023-08-17T11:40:57;31.10;99.90
34768;DHT22;21755;43.608;1.236;2023-08-17T11:43:23;31.30;99.90
34768;DHT22;21755;43.608;1.236;2023-08-17T11:45:51;31.50;99.90
34768;DHT22;21755;43.608;1.236;2023-08-17T11:48:19;31.20;99.90
34768;DHT22;21755;43.608;1.236;2023-08-17T11:50:45;31.20;99.90
34768;DHT22;21755;43.608;1.236;2023-08-17T11:53:11;31.40;99.90
34768;DHT22;21755;43.608;1.236;2023-08-17T11:55:37;31.50;99.90
34768;DHT22;21755;43.608;1.236;2023-08-17T11:58:04;31.80;99.90
34768;DHT22;21755;43.608;1.236;2023-08-17T12:00:35;32.00;99.90
34768;DHT22;21755;43.608;1.236;2023-08-17T12:03:04;32.00;99.90
34768;DHT22;21755;43.608;1.236;2023-08-17T12:05:31;32.00;99.90
34768;DHT22;21755;43.608;1.236;2023-08-17T12:07:59;32.10;99.90
34768;DHT22;21755;43.608;1.236;2023-08-17T12:10:31;32.20;99.90
34768;DHT22;21755;43.608;1.236;2023-08-17T12:13:01;32.20;99.90
34768;DHT22;21755;43.608;1.236;2023-08-17T12:15:34;32.00;99.90
34768;DHT22;21755;43.608;1.236;2023-08-17T12:18:03;31.90;99.90
34768;DHT22;21755;43.608;1.236;2023-08-17T12:20:32;32.00;99.90
34768;DHT22;21755;43.608;1.236;2023-08-17T12:22:58;32.20;99.90
34768;DHT22;21755;43.608;1.236;2023-08-17T12:25:25;32.20;99.90
34768;DHT22;21755;43.608;1.236;2023-08-17T12:27:52;32.30;99.90
34768;DHT22;21755;43.608;1.236;2023-08-17T12:30:29;32.40;99.90
34768;DHT22;21755;43.608;1.236;2023-08-17T12:32:57;32.30;99.90
34768;DHT22;21755;43.608;1.236;2023-08-17T12:35:22;32.30;99.90
34768;DHT22;21755;43.608;1.236;2023-08-17T12:37:51;32.30;99.90
34768;DHT22;21755;43.608;1.236;2023-08-17T12:40:16;32.40;99.90
34768;DHT22;21755;43.608;1.236;2023-08-17T12:42:42;32.40;99.90
34768;DHT22;21755;43.608;1.236;2023-08-17T12:45:08;32.50;99.90
34768;DHT22;21755;43.608;1.236;2023-08-17T12:47:34;32.50;99.90
34768;DHT22;21755;43.608;1.236;2023-08-17T12:50:00;32.60;99.90
34768;DHT22;21755;43.608;1.236;2023-08-17T12:52:27;32.70;99.90
34768;DHT22;21755;43.608;1.236;2023-08-17T12:54:53;32.90;99.90
34768;DHT22;21755;43.608;1.236;2023-08-17T12:57:19;32.60;99.90
34768;DHT22;21755;43.608;1.236;2023-08-17T12:59:45;32.60;99.90
34768;DHT22;21755;43.608;1.236;2023-08-17T13:02:11;32.60;99.90
34768;DHT22;21755;43.608;1.236;2023-08-17T13:04:37;32.60;99.90
34768;DHT22;21755;43.608;1.236;2023-08-17T13:07:03;32.70;99.90
34768;DHT22;21755;43.608;1.236;2023-08-17T13:09:29;32.70;99.90
34768;DHT22;21755;43.608;1.236;2023-08-17T13:11:54;32.70;99.90
34768;DHT22;21755;43.608;1.236;2023-08-17T13:14:20;32.80;99.90
34768;DHT22;21755;43.608;1.236;2023-08-17T13:16:51;32.90;99.90
34768;DHT22;21755;43.608;1.236;2023-08-17T13:19:18;32.90;99.90
34768;DHT22;21755;43.608;1.236;2023-08-17T13:21:44;33.10;99.90
34768;DHT22;21755;43.608;1.236;2023-08-17T13:24:10;33.30;99.90
34768;DHT22;21755;43.608;1.236;2023-08-17T13:26:36;33.40;99.90
34768;DHT22;21755;43.608;1.236;2023-08-17T13:29:02;33.30;99.90
34768;DHT22;21755;43.608;1.236;2023-08-17T13:31:28;33.20;99.90
34768;DHT22;21755;43.608;1.236;2023-08-17T13:33:54;33.20;99.90
34768;DHT22;21755;43.608;1.236;2023-08-17T13:36:20;33.10;99.90
34768;DHT22;21755;43.608;1.236;2023-08-17T13:38:46;33.00;99.90
34768;DHT22;21755;43.608;1.236;2023-08-17T13:41:12;33.00;99.90
34768;DHT22;21755;43.608;1.236;2023-08-17T13:43:39;33.00;99.90
34768;DHT22;21755;43.608;1.236;2023-08-17T13:46:04;33.20;99.90
34768;DHT22;21755;43.608;1.236;2023-08-17T13:48:30;33.40;99.90
34768;DHT22;21755;43.608;1.236;2023-08-17T13:50:56;33.40;99.90
34768;DHT22;21755;43.608;1.236;2023-08-17T13:53:22;33.50;99.90
34768;DHT22;21755;43.608;1.236;2023-08-17T13:55:48;33.50;99.90
34768;DHT22;21755;43.608;1.236;2023-08-17T13:58:14;33.40;99.90
34768;DHT22;21755;43.608;1.236;2023-08-17T14:00:41;33.40;99.90
34768;DHT22;21755;43.608;1.236;2023-08-17T14:03:07;33.10;99.90
34768;DHT22;21755;43.608;1.236;2023-08-17T14:05:33;33.00;99.90
34768;DHT22;21755;43.608;1.236;2023-08-17T14:07:59;32.90;99.90
34768;DHT22;21755;43.608;1.236;2023-08-17T14:10:25;32.90;99.90
34768;DHT22;21755;43.608;1.236;2023-08-17T14:12:50;33.10;99.90
34768;DHT22;21755;43.608;1.236;2023-08-17T14:15:16;33.50;99.90
34768;DHT22;21755;43.608;1.236;2023-08-17T14:17:42;33.70;99.90
34768;DHT22;21755;43.608;1.236;2023-08-17T14:20:08;33.70;99.90
34768;DHT22;21755;43.608;1.236;2023-08-17T14:22:34;33.60;99.90
34768;DHT22;21755;43.608;1.236;2023-08-17T14:25:00;33.70;99.90
34768;DHT22;21755;43.608;1.236;2023-08-17T14:27:26;33.80;99.90
34768;DHT22;21755;43.608;1.236;2023-08-17T14:29:52;33.80;99.90
34768;DHT22;21755;43.608;1.236;2023-08-17T14:32:18;33.90;99.90
34768;DHT22;21755;43.608;1.236;2023-08-17T14:34:43;33.90;99.90
34768;DHT22;21755;43.608;1.236;2023-08-17T14:37:09;33.80;99.90
34768;DHT22;21755;43.608;1.236;2023-08-17T14:39:35;33.60;99.90
34768;DHT22;21755;43.608;1.236;2023-08-17T14:42:01;33.40;99.90
34768;DHT22;21755;43.608;1.236;2023-08-17T14:44:26;33.30;99.90
34768;DHT22;21755;43.608;1.236;2023-08-17T14:46:52;33.30;99.90
34768;DHT22;21755;43.608;1.236;2023-08-17T14:49:18;33.30;99.90
34768;DHT22;21755;43.608;1.236;2023-08-17T14:51:44;33.20;99.90
34768;DHT22;21755;43.608;1.236;2023-08-17T14:54:10;33.10;99.90
34768;DHT22;21755;43.608;1.236;2023-08-17T14:56:37;33.20;99.90
34768;DHT22;21755;43.608;1.236;2023-08-17T14:59:03;33.30;99.90
34768;DHT22;21755;43.608;1.236;2023-08-17T15:01:29;33.40;99.90
34768;DHT22;21755;43.608;1.236;2023-08-17T15:03:56;33.40;99.90
34768;DHT22;21755;43.608;1.236;2023-08-17T15:06:22;33.40;99.90
34768;DHT22;21755;43.608;1.236;2023-08-17T15:08:50;33.60;99.90
34768;DHT22;21755;43.608;1.236;2023-08-17T15:11:15;33.40;99.90
34768;DHT22;21755;43.608;1.236;2023-08-17T15:13:41;33.60;99.90
34768;DHT22;21755;43.608;1.236;2023-08-17T15:16:08;33.70;99.90
34768;DHT22;21755;43.608;1.236;2023-08-17T15:18:34;33.70;99.90
34768;DHT22;21755;43.608;1.236;2023-08-17T15:21:00;33.60;99.90
34768;DHT22;21755;43.608;1.236;2023-08-17T15:23:26;33.60;99.90
34768;DHT22;21755;43.608;1.236;2023-08-17T15:25:52;33.50;99.90
34768;DHT22;21755;43.608;1.236;2023-08-17T15:28:17;33.30;99.90
34768;DHT22;21755;43.608;1.236;2023-08-17T15:30:44;33.30;99.90
34768;DHT22;21755;43.608;1.236;2023-08-17T15:33:10;33.20;99.90
34768;DHT22;21755;43.608;1.236;2023-08-17T15:35:35;33.20;99.90
34768;DHT22;21755;43.608;1.236;2023-08-17T15:38:01;33.10;99.90
34768;DHT22;21755;43.608;1.236;2023-08-17T15:40:27;33.10;99.90